Time;durP1;ratioP1;P1;durP2;ratioP2;P2;SDS_P1;SDS_P2;PMS_P1;PMS_P2;Temp;Humidity;BMP_temperature;BMP_pressure;BME280_temperature;BME280_humidity;BME280_pressure;Samples;Min_cycle;Max_cycle;Signal;HPM_P1;HPM_P2
2022/09/12 00:01:15;;;;;;;25.48;17.05;;;;;;;11.96;100.00;101800.09;5073158;28;20033;-80
2022/09/12 00:03:41;;;;;;;25.92;18.35;;;;;;;11.94;100.00;101804.69;5056729;28;20489;-80
2022/09/12 00:06:22;;;;;;;23.48;17.58;;;;;;;11.94;100.00;101802.91;5073709;28;20389;-80
2022/09/12 00:08:47;;;;;;;27.00;17.83;;;;;;;11.92;100.00;101794.13;5073485;28;20028;-80
2022/09/12 00:11:13;;;;;;;22.90;15.15;;;;;;;11.90;100.00;101787.25;5055565;28;20025;-80
2022/09/12 00:13:40;;;;;;;20.13;14.13;;;;;;;11.89;100.00;101796.19;5073002;28;20483;-80
2022/09/12 00:16:07;;;;;;;21.67;16.27;;;;;;;11.89;100.00;101793.53;5072894;28;20119;-80
2022/09/12 00:18:32;;;;;;;18.27;14.45;;;;;;;11.86;100.00;101789.28;5073155;28;20103;-80
2022/09/12 00:21:03;;;;;;;17.67;12.90;;;;;;;11.83;100.00;101787.72;5073550;28;20032;-80
2022/09/12 00:23:29;;;;;;;42.80;21.10;;;;;;;11.86;100.00;101786.63;5073355;28;20044;-80
2022/09/12 00:25:54;;;;;;;25.63;17.45;;;;;;;11.88;100.00;101789.16;5055509;28;20032;-80
2022/09/12 00:28:19;;;;;;;25.10;17.23;;;;;;;11.89;100.00;101786.38;5072852;28;20029;-80
2022/09/12 00:30:47;;;;;;;29.50;19.10;;;;;;;11.88;100.00;101794.50;5073201;28;20361;-82
2022/09/12 00:33:14;;;;;;;23.27;16.13;;;;;;;11.88;100.00;101789.16;5072577;28;20029;-80
2022/09/12 00:35:54;;;;;;;19.08;13.52;;;;;;;11.86;100.00;101791.13;5072936;28;20031;-81
2022/09/12 00:38:20;;;;;;;22.98;14.43;;;;;;;11.89;100.00;101790.88;5055250;28;20032;-80
2022/09/12 00:40:46;;;;;;;17.23;12.50;;;;;;;11.91;100.00;101781.78;5073419;28;20039;-79
2022/09/12 00:43:40;;;;;;;32.85;20.95;;;;;;;11.95;100.00;101785.06;5072993;28;20044;-79
2022/09/12 00:46:24;;;;;;;22.92;16.98;;;;;;;11.96;100.00;101778.75;5073671;28;20056;-80
2022/09/12 00:49:01;;;;;;;22.98;15.60;;;;;;;11.99;100.00;101781.19;5073294;28;20021;-80
2022/09/12 00:51:30;;;;;;;18.02;12.50;;;;;;;12.01;100.00;101783.72;5073173;28;20082;-79
2022/09/12 00:53:58;;;;;;;25.17;17.35;;;;;;;12.06;100.00;101778.84;5075673;28;20025;-79
2022/09/12 00:56:25;;;;;;;29.63;19.48;;;;;;;12.12;100.00;101781.00;5076657;28;20469;-80
2022/09/12 00:59:04;;;;;;;31.20;19.45;;;;;;;12.16;100.00;101783.28;5077113;28;20024;-80
2022/09/12 01:01:29;;;;;;;23.17;16.45;;;;;;;12.17;100.00;101776.16;5076820;28;20039;-79
2022/09/12 01:03:55;;;;;;;26.65;17.27;;;;;;;12.19;100.00;101773.34;5076904;28;20415;-80
2022/09/12 01:06:26;;;;;;;23.45;16.27;;;;;;;12.17;100.00;101773.47;5058676;28;20059;-80
2022/09/12 01:08:53;;;;;;;26.75;16.55;;;;;;;12.18;100.00;101772.50;5076929;28;20028;-81
2022/09/12 01:11:20;;;;;;;22.90;15.20;;;;;;;12.16;100.00;101761.94;5076256;28;20064;-80
2022/09/12 01:13:45;;;;;;;18.42;13.15;;;;;;;12.13;100.00;101758.69;5076539;28;20500;-80
2022/09/12 01:16:11;;;;;;;17.70;12.63;;;;;;;12.10;100.00;101765.13;5075993;28;20040;-80
2022/09/12 01:18:53;;;;;;;17.83;12.85;;;;;;;12.10;100.00;101770.47;5075979;28;20384;-79
2022/09/12 01:21:36;;;;;;;24.73;16.15;;;;;;;12.09;100.00;101762.59;5076460;28;20039;-80
2022/09/12 01:24:16;;;;;;;21.60;15.23;;;;;;;12.09;100.00;101767.91;5076099;28;20036;-79
2022/09/12 01:27:05;;;;;;;21.60;15.20;;;;;;;12.07;100.00;101764.53;5076877;28;20034;-79
2022/09/12 01:30:05;;;;;;;21.63;15.70;;;;;;;12.05;100.00;101762.00;5076320;28;20025;-79
2022/09/12 01:32:36;;;;;;;26.88;17.80;;;;;;;12.02;100.00;101762.25;5060873;28;20127;-79
2022/09/12 01:35:21;;;;;;;;;;;;;;;11.99;100.00;101755.34;5076231;28;20054;-80
2022/09/12 01:37:59;;;;;;;21.33;14.82;;;;;;;11.94;100.00;101748.69;5076082;28;19908;-80
2022/09/12 01:40:36;;;;;;;26.52;16.45;;;;;;;11.89;100.00;101743.69;5076188;28;20032;-80
2022/09/12 01:43:17;;;;;;;18.55;13.93;;;;;;;11.88;100.00;101749.16;5075681;28;20098;-79
2022/09/12 01:45:57;;;;;;;26.15;18.05;;;;;;;11.85;100.00;101739.59;5075807;28;20100;-80
2022/09/12 01:48:28;;;;;;;23.48;15.68;;;;;;;11.86;100.00;101740.44;5076286;28;20098;-80
2022/09/12 01:51:14;;;;;;;23.92;16.65;;;;;;;11.85;100.00;101736.91;5076201;28;20449;-80
2022/09/12 01:53:49;;;;;;;24.98;15.93;;;;;;;11.85;100.00;101734.25;5075911;28;20025;-80
2022/09/12 01:56:21;;;;;;;25.90;17.17;;;;;;;11.87;100.00;101731.47;5075281;28;20034;-80
2022/09/12 01:58:57;;;;;;;24.35;16.17;;;;;;;11.87;100.00;101736.78;5075805;28;20393;-81
2022/09/12 02:01:28;;;;;;;18.10;12.27;;;;;;;11.87;100.00;101729.66;5075794;28;20044;-80
2022/09/12 02:04:09;;;;;;;20.23;14.10;;;;;;;11.88;100.00;101727.81;5075071;28;20119;-80
2022/09/12 02:07:13;;;;;;;25.00;16.13;;;;;;;11.87;100.00;101723.47;5057777;28;20037;-79
2022/09/12 02:09:58;;;;;;;18.65;13.32;;;;;;;11.86;100.00;101719.13;5057452;28;20099;-79
2022/09/12 02:12:33;;;;;;;21.50;14.65;;;;;;;11.88;100.00;101711.81;5075264;28;20039;-79
2022/09/12 02:15:02;;;;;;;23.00;15.43;;;;;;;11.90;100.00;101709.91;5075209;28;20036;-79
2022/09/12 02:17:30;;;;;;;23.42;14.73;;;;;;;11.92;100.00;101710.59;5075128;28;20024;-79
2022/09/12 02:20:09;;;;;;;24.88;15.80;;;;;;;11.95;100.00;101713.06;5075182;28;20029;-80
2022/09/12 02:22:36;;;;;;;21.70;13.43;;;;;;;11.95;100.00;101707.72;5075606;28;20036;-79
2022/09/12 02:25:05;;;;;;;21.95;14.60;;;;;;;11.96;100.00;101704.91;5056853;28;20491;-79
2022/09/12 02:27:52;;;;;;;26.48;16.40;;;;;;;12.03;100.00;101704.41;5075199;28;20032;-79
2022/09/12 02:30:18;;;;;;;23.48;14.00;;;;;;;12.08;100.00;101703.06;5074600;28;20028;-79
2022/09/12 02:32:53;;;;;;;20.88;12.82;;;;;;;12.12;100.00;101700.97;5074470;28;20033;-79
2022/09/12 02:35:27;;;;;;;26.40;16.13;;;;;;;12.16;100.00;101697.91;5074541;28;20082;-79
2022/09/12 02:38:07;;;;;;;27.40;17.00;;;;;;;12.21;100.00;101710.03;5074771;28;20028;-86
2022/09/12 02:40:34;;;;;;;23.98;15.68;;;;;;;12.23;100.00;101700.94;5057466;28;20032;-79
2022/09/12 02:43:01;;;;;;;22.20;15.75;;;;;;;12.25;100.00;101693.63;5074430;28;20051;-80
2022/09/12 02:45:28;;;;;;;28.13;17.08;;;;;;;12.26;100.00;101687.34;5074716;28;20102;-79
2022/09/12 02:47:59;;;;;;;25.00;15.35;;;;;;;12.28;100.00;101692.53;5056976;28;20060;-82
2022/09/12 02:50:25;;;;;;;28.75;16.33;;;;;;;12.29;100.00;101695.06;5074198;28;20032;-80
2022/09/12 02:52:58;;;;;;;24.60;15.48;;;;;;;12.31;100.00;101694.94;5074182;28;20028;-80
2022/09/12 02:55:25;;;;;;;29.60;17.17;;;;;;;12.34;100.00;101689.34;5074386;28;20372;-79
2022/09/12 02:57:52;;;;;;;35.22;18.13;;;;;;;12.36;100.00;101687.41;5074315;28;20051;-79
2022/09/12 03:00:17;;;;;;;25.73;16.40;;;;;;;12.38;100.00;101684.63;5074768;28;20037;-80
2022/09/12 03:02:56;;;;;;;24.65;15.93;;;;;;;12.40;100.00;101682.66;5075141;28;20029;-80
2022/09/12 03:05:33;;;;;;;25.15;15.85;;;;;;;12.41;100.00;101685.19;5074669;28;20056;-79
2022/09/12 03:07:59;;;;;;;26.02;16.58;;;;;;;12.43;100.00;101677.88;5074531;28;20032;-80
2022/09/12 03:10:50;;;;;;;29.95;18.20;;;;;;;12.49;100.00;101673.84;5074678;28;20028;-80
2022/09/12 03:13:46;;;;;;;30.27;18.02;;;;;;;12.54;100.00;101679.66;5074844;28;20029;-80
2022/09/12 03:16:33;;;;;;;32.90;18.80;;;;;;;12.58;100.00;101674.88;5074624;28;20025;-79
2022/09/12 03:19:07;;;;;;;31.00;18.08;;;;;;;12.60;100.00;101675.59;5074931;28;20056;-81
2022/09/12 03:21:54;;;;;;;30.75;18.20;;;;;;;12.61;100.00;101674.63;5075089;28;20028;-79
2022/09/12 03:24:33;;;;;;;30.25;17.35;;;;;;;12.62;100.00;101669.16;5075100;28;20119;-80
2022/09/12 03:27:04;;;;;;;33.25;18.25;;;;;;;12.62;100.00;101662.97;5073897;28;20036;-88
2022/09/12 03:29:30;;;;;;;35.72;19.05;;;;;;;12.64;100.00;101666.34;5073940;28;20028;-79
2022/09/12 03:31:57;;;;;;;32.72;19.48;;;;;;;12.64;100.00;101666.34;5073939;28;20465;-79
2022/09/12 03:34:25;;;;;;;26.48;15.25;;;;;;;12.63;100.00;101664.66;5055545;28;20063;-80
2022/09/12 03:36:51;;;;;;;27.38;16.58;;;;;;;12.63;100.00;101664.66;5073662;28;20037;-80
2022/09/12 03:39:17;;;;;;;29.63;17.27;;;;;;;12.62;100.00;101665.66;5073858;28;20064;-80
2022/09/12 03:41:43;;;;;;;30.25;18.13;;;;;;;12.60;100.00;101655.09;5073318;28;20036;-80
2022/09/12 03:44:08;;;;;;;28.20;17.30;;;;;;;12.58;100.00;101657.03;5073934;28;20053;-79
2022/09/12 03:46:34;;;;;;;33.72;18.10;;;;;;;12.55;100.00;101657.31;5073488;28;20120;-79
2022/09/12 03:48:59;;;;;;;30.33;17.17;;;;;;;12.54;100.00;101655.63;5055560;28;20028;-79
2022/09/12 03:51:25;;;;;;;29.42;16.92;;;;;;;12.53;100.00;101659.28;5073854;28;20044;-80
2022/09/12 03:53:50;;;;;;;34.80;18.80;;;;;;;12.53;100.00;101667.28;5073378;28;20036;-80
2022/09/12 03:56:16;;;;;;;34.05;18.27;;;;;;;12.53;100.00;101661.94;5073517;28;20112;-80
2022/09/12 03:58:42;;;;;;;30.77;17.42;;;;;;;12.51;100.00;101661.25;5055356;28;20044;-80
2022/09/12 04:01:13;;;;;;;23.88;15.00;;;;;;;12.48;100.00;101661.47;5073279;28;20076;-80
2022/09/12 04:03:39;;;;;;;;;;;;;;;12.46;100.00;101660.78;5073882;28;20034;-79
2022/09/12 04:06:05;;;;;;;26.90;16.40;;;;;;;12.44;100.00;101663.56;5072669;28;20400;-80
2022/09/12 04:08:30;;;;;;;33.13;18.40;;;;;;;12.43;100.00;101658.38;5073701;28;20103;-79
2022/09/12 04:11:05;;;;;;;27.13;16.85;;;;;;;12.42;100.00;101657.53;5073077;28;20048;-80
2022/09/12 04:13:31;;;;;;;29.98;16.45;;;;;;;12.38;100.00;101656.09;5073263;28;20106;-79
2022/09/12 04:15:58;;;;;;;26.88;16.50;;;;;;;12.36;100.00;101652.72;5072859;28;20070;-79
2022/09/12 04:18:24;;;;;;;26.75;16.70;;;;;;;12.34;100.00;101657.31;5072999;28;20036;-80
2022/09/12 04:20:49;;;;;;;25.55;15.38;;;;;;;12.31;100.00;101655.75;5073119;28;20173;-80
2022/09/12 04:23:14;;;;;;;28.77;17.45;;;;;;;12.28;100.00;101650.69;5072854;28;20392;-79
2022/09/12 04:25:40;;;;;;;28.48;17.25;;;;;;;12.25;100.00;101650.94;5072827;28;20127;-80
2022/09/12 04:28:05;;;;;;;25.67;15.18;;;;;;;12.23;100.00;101654.75;5076511;28;20115;-80
2022/09/12 04:30:33;;;;;;;33.90;18.58;;;;;;;12.19;100.00;101654.13;5059236;28;20425;-80
2022/09/12 04:32:58;;;;;;;34.47;19.10;;;;;;;12.17;100.00;101658.75;5077132;28;20434;-80
2022/09/12 04:35:24;;;;;;;25.38;15.38;;;;;;;12.16;100.00;101651.72;5077174;28;20039;-80
2022/09/12 04:37:49;;;;;;;35.20;18.83;;;;;;;12.13;100.00;101652.00;5059288;28;20032;-80
2022/09/12 04:40:14;;;;;;;27.50;16.52;;;;;;;12.07;100.00;101655.19;5077433;28;20215;-80
2022/09/12 04:42:40;;;;;;;31.55;18.25;;;;;;;12.03;100.00;101659.91;5076641;28;20098;-79
2022/09/12 04:45:06;;;;;;;29.55;18.33;;;;;;;11.97;100.00;101658.63;5077668;28;20028;-80
2022/09/12 04:47:31;;;;;;;37.63;19.52;;;;;;;11.93;100.00;101653.69;5077118;28;20380;-80
2022/09/12 04:49:57;;;;;;;35.83;19.50;;;;;;;11.89;100.00;101662.88;5076734;28;20029;-80
2022/09/12 04:52:22;;;;;;;35.30;18.90;;;;;;;11.85;100.00;101659.59;5058671;28;20040;-80
2022/09/12 04:54:48;;;;;;;32.17;18.25;;;;;;;11.77;100.00;101659.41;5076694;28;20037;-80
2022/09/12 04:57:13;;;;;;;33.08;17.77;;;;;;;11.71;100.00;101659.91;5076624;28;20036;-80
2022/09/12 04:59:38;;;;;;;23.13;14.60;;;;;;;11.64;100.00;101652.41;5076788;28;20028;-79
2022/09/12 05:02:04;;;;;;;32.72;19.08;;;;;;;11.62;100.00;101654.34;5076262;28;20033;-79
2022/09/12 05:04:30;;;;;;;32.50;17.83;;;;;;;11.61;100.00;101654.47;5076463;28;20163;-80
2022/09/12 05:06:55;;;;;;;33.55;17.83;;;;;;;11.65;100.00;101654.09;5058540;28;20043;-79
2022/09/12 05:09:21;;;;;;;30.90;17.35;;;;;;;11.64;100.00;101657.75;5076485;28;20025;-80
2022/09/12 05:11:47;;;;;;;25.98;15.13;;;;;;;11.65;100.00;101656.75;5076028;28;20036;-79
2022/09/12 05:14:12;;;;;;;22.92;13.95;;;;;;;11.62;100.00;101650.84;5076438;28;20028;-81
2022/09/12 05:16:38;;;;;;;29.70;16.67;;;;;;;11.63;100.00;101647.22;5076288;28;20028;-80
2022/09/12 05:19:03;;;;;;;28.77;16.88;;;;;;;11.62;100.00;101649.00;5076361;28;20036;-81
2022/09/12 05:21:29;;;;;;;31.58;18.73;;;;;;;11.61;100.00;101646.47;5076834;28;20064;-81
2022/09/12 05:23:58;;;;;;;22.70;13.45;;;;;;;11.60;100.00;101639.47;5076303;28;20453;-80
2022/09/12 05:26:24;;;;;;;26.55;16.75;;;;;;;11.58;100.00;101636.06;5058779;28;20028;-81
2022/09/12 05:28:51;;;;;;;22.90;14.48;;;;;;;11.56;100.00;101624.69;5076112;28;20033;-81
2022/09/12 05:31:18;;;;;;;27.45;15.63;;;;;;;11.54;100.00;101626.63;5075796;28;20423;-80
2022/09/12 05:33:45;;;;;;;33.63;17.67;;;;;;;11.56;100.00;101622.88;5075966;28;20079;-80
2022/09/12 05:36:17;;;;;;;30.58;17.45;;;;;;;11.60;100.00;101621.66;5076059;28;20039;-80
2022/09/12 05:38:43;;;;;;;28.58;17.27;;;;;;;11.63;100.00;101629.38;5075173;28;20032;-79
2022/09/12 05:41:12;;;;;;;32.15;17.77;;;;;;;11.67;100.00;101629.13;5059117;28;20117;-80
2022/09/12 05:43:40;;;;;;;36.97;21.17;;;;;;;11.71;100.00;101633.25;5075872;28;20104;-78
2022/09/12 05:46:11;;;;;;;26.52;15.80;;;;;;;11.75;100.00;101637.34;5075826;28;20128;-79
2022/09/12 05:48:37;;;;;;;;;;;;;;;11.77;100.00;101640.72;5076044;28;20028;-79
2022/09/12 05:51:08;;;;;;;30.52;17.25;;;;;;;11.77;100.00;101643.41;5058128;28;19912;-79
2022/09/12 05:53:35;;;;;;;35.40;20.25;;;;;;;11.76;100.00;101645.22;5075693;28;20032;-79
2022/09/12 05:56:09;;;;;;;32.67;18.73;;;;;;;11.75;100.00;101648.03;5075682;28;20036;-79
2022/09/12 05:58:37;;;;;;;32.53;19.23;;;;;;;11.74;100.00;101638.31;5076170;28;20029;-78
2022/09/12 06:01:11;;;;;;;35.75;19.90;;;;;;;11.75;100.00;101642.69;5075249;28;20112;-79
2022/09/12 06:03:45;;;;;;;35.38;20.10;;;;;;;11.76;100.00;101637.22;5075089;28;20033;-79
2022/09/12 06:06:12;;;;;;;26.67;16.23;;;;;;;11.77;100.00;101632.72;5075601;28;20055;-79
2022/09/12 06:08:40;;;;;;;34.97;20.02;;;;;;;11.82;100.00;101639.38;5075015;28;20032;-79
2022/09/12 06:11:08;;;;;;;42.10;22.15;;;;;;;11.87;100.00;101639.00;5075538;28;20039;-81
2022/09/12 06:13:36;;;;;;;41.60;22.48;;;;;;;11.94;100.00;101631.34;5075208;28;20027;-79
2022/09/12 06:16:16;;;;;;;39.50;22.15;;;;;;;12.02;100.00;101628.91;5075296;28;20163;-79
2022/09/12 06:18:47;;;;;;;42.05;22.52;;;;;;;12.13;100.00;101633.31;5075695;28;20032;-80
2022/09/12 06:21:12;;;;;;;46.53;23.88;;;;;;;12.24;100.00;101629.72;5074914;28;20035;-79
2022/09/12 06:23:39;;;;;;;41.78;23.40;;;;;;;12.34;100.00;101634.16;5075252;28;20377;-80
2022/09/12 06:26:06;;;;;;;49.25;25.30;;;;;;;12.44;100.00;101622.69;5075145;28;20052;-79
2022/09/12 06:28:34;;;;;;;42.33;22.65;;;;;;;12.55;100.00;101621.75;5056707;28;20029;-80
2022/09/12 06:31:11;;;;;;;47.95;24.92;;;;;;;12.64;100.00;101627.13;5074927;28;20024;-79
2022/09/12 06:33:40;;;;;;;44.22;23.95;;;;;;;12.73;100.00;101628.16;5056760;28;20078;-79
2022/09/12 06:36:09;;;;;;;42.30;23.75;;;;;;;12.82;100.00;101624.72;5074463;28;20086;-79
2022/09/12 06:38:34;;;;;;;43.22;23.42;;;;;;;12.90;100.00;101621.38;5074493;28;20032;-78
2022/09/12 06:41:06;;;;;;;51.72;24.35;;;;;;;12.97;100.00;101618.97;5056843;28;20040;-79
2022/09/12 06:43:33;;;;;;;46.15;23.33;;;;;;;13.05;100.00;101627.19;5057432;28;20056;-79
2022/09/12 06:45:58;;;;;;;42.00;24.13;;;;;;;13.15;100.00;101624.50;5075286;28;20059;-79
2022/09/12 06:48:24;;;;;;;43.83;22.70;;;;;;;13.22;100.00;101634.50;5074584;28;20032;-80
2022/09/12 06:51:01;;;;;;;41.97;24.02;;;;;;;13.31;100.00;101632.00;5074601;28;20522;-79
2022/09/12 06:53:29;;;;;;;41.08;22.65;;;;;;;13.45;100.00;101633.47;5074396;28;20479;-80
2022/09/12 06:56:02;;;;;;;38.08;21.58;;;;;;;13.52;100.00;101634.59;5074547;28;20072;-79
2022/09/12 06:58:28;;;;;;;39.25;21.45;;;;;;;13.58;100.00;101636.72;5074433;28;20131;-79
2022/09/12 07:01:06;;;;;;;34.25;20.75;;;;;;;13.63;100.00;101639.84;5074896;28;20446;-79
2022/09/12 07:03:32;;;;;;;37.63;20.65;;;;;;;13.69;100.00;101652.66;5074282;28;20079;-80
2022/09/12 07:06:03;;;;;;;39.53;22.63;;;;;;;13.74;100.00;101647.72;5074149;28;20044;-79
2022/09/12 07:08:30;;;;;;;35.65;20.90;;;;;;;13.81;100.00;101642.66;5074142;28;20062;-80
2022/09/12 07:10:56;;;;;;;34.72;20.02;;;;;;;13.87;100.00;101643.94;5074479;28;20040;-80
2022/09/12 07:13:21;;;;;;;40.95;21.88;;;;;;;13.92;100.00;101645.16;5074253;28;20024;-79
2022/09/12 07:15:47;;;;;;;41.08;21.02;;;;;;;14.02;100.00;101639.00;5074027;28;20040;-80
2022/09/12 07:18:13;;;;;;;35.03;20.05;;;;;;;14.13;100.00;101641.50;5073965;28;20040;-80
2022/09/12 07:20:38;;;;;;;32.95;20.20;;;;;;;14.27;100.00;101635.72;5055797;28;20028;-79
2022/09/12 07:23:04;;;;;;;35.47;20.77;;;;;;;14.44;100.00;101639.47;5073854;28;20058;-79
2022/09/12 07:25:29;;;;;;;31.02;18.90;;;;;;;14.58;100.00;101640.00;5074258;28;20078;-80
2022/09/12 07:27:54;;;;;;;28.50;19.38;;;;;;;14.72;100.00;101633.34;5055662;28;20392;-79
2022/09/12 07:30:21;;;;;;;30.48;19.15;;;;;;;14.87;100.00;101633.69;5056412;28;20029;-79
2022/09/12 07:32:50;;;;;;;29.33;18.10;;;;;;;15.02;100.00;101636.72;5073525;28;20024;-80
2022/09/12 07:35:15;;;;;;;30.15;17.63;;;;;;;15.15;100.00;101635.41;5073449;28;20035;-80
2022/09/12 07:37:41;;;;;;;25.48;17.67;;;;;;;15.28;100.00;101629.66;5074124;28;20032;-80
2022/09/12 07:40:09;;;;;;;26.02;16.67;;;;;;;15.42;100.00;101631.00;5073613;28;20024;-79
2022/09/12 07:42:34;;;;;;;25.27;17.25;;;;;;;15.57;100.00;101634.00;5073273;28;20115;-79
2022/09/12 07:45:00;;;;;;;25.45;16.50;;;;;;;15.70;100.00;101630.94;5073553;28;20451;-80
2022/09/12 07:47:25;;;;;;;23.52;15.25;;;;;;;15.85;100.00;101636.63;5073534;28;20036;-79
2022/09/12 07:49:51;;;;;;;23.90;15.40;;;;;;;16.00;100.00;101637.78;5073401;28;20029;-79
2022/09/12 07:52:17;;;;;;;20.30;14.38;;;;;;;16.17;100.00;101638.75;5073363;28;20043;-79
2022/09/12 07:54:43;;;;;;;25.92;14.82;;;;;;;16.30;100.00;101637.47;5073340;28;20032;-78
2022/09/12 07:57:08;;;;;;;20.00;14.50;;;;;;;16.35;100.00;101632.50;5073250;28;20064;-79
2022/09/12 07:59:34;;;;;;;19.25;14.00;;;;;;;16.42;100.00;101627.31;5072993;28;20024;-79
2022/09/12 08:01:59;;;;;;;19.95;14.27;;;;;;;16.56;100.00;101630.25;5054841;28;20484;-79
2022/09/12 08:04:25;;;;;;;21.10;13.88;;;;;;;16.73;100.00;101624.97;5073684;28;20476;-79
2022/09/12 08:06:50;;;;;;;19.88;13.05;;;;;;;16.90;100.00;101632.16;5073274;28;20039;-79
2022/09/12 08:09:16;;;;;;;20.58;12.27;;;;;;;17.30;100.00;101629.75;5073278;28;20067;-79
2022/09/12 08:11:42;;;;;;;19.65;13.48;;;;;;;18.09;100.00;101632.03;5072756;28;20051;-80
2022/09/12 08:14:08;;;;;;;17.88;11.70;;;;;;;18.71;100.00;101630.59;5073222;28;20028;-81
2022/09/12 08:16:34;;;;;;;13.40;9.95;;;;;;;19.20;100.00;101630.41;5039362;28;20091;-83
2022/09/12 08:19:03;;;;;;;17.52;10.13;;;;;;;19.46;99.99;101629.25;5073153;28;20503;-79
2022/09/12 08:21:30;;;;;;;14.43;9.20;;;;;;;19.67;99.14;101636.69;5055895;28;20062;-79
2022/09/12 08:24:01;;;;;;;12.07;8.57;;;;;;;19.87;99.50;101631.66;5072987;28;20032;-79
2022/09/12 08:26:27;;;;;;;;;;;;;;;19.94;93.14;101637.19;5073675;28;20056;-80
2022/09/12 08:28:53;;;;;;;11.40;8.63;;;;;;;19.87;91.59;101627.13;5073046;28;19924;-79
2022/09/12 08:31:21;;;;;;;13.88;8.25;;;;;;;19.93;91.91;101625.56;5073719;28;20064;-79
2022/09/12 08:33:47;;;;;;;12.48;8.18;;;;;;;20.06;93.03;101627.63;5073144;28;20032;-80
2022/09/12 08:36:14;;;;;;;13.32;7.75;;;;;;;20.28;91.83;101625.88;5073363;28;20032;-79
2022/09/12 08:38:45;;;;;;;17.33;8.27;;;;;;;20.54;90.35;101621.91;5073236;28;20035;-79
2022/09/12 08:41:13;;;;;;;;;;;;;;;20.86;89.78;101619.88;5073631;28;20029;-80
2022/09/12 08:44:10;;;;;;;14.18;8.15;;;;;;;21.27;85.11;101627.44;5072943;28;19916;-79
2022/09/12 08:47:00;;;;;;;10.48;7.57;;;;;;;21.82;81.46;101615.09;5073151;28;20595;-88
2022/09/12 08:49:32;;;;;;;6.30;5.32;;;;;;;22.42;74.71;101614.75;5073148;28;20028;-80
2022/09/12 08:52:05;;;;;;;6.18;4.47;;;;;;;22.97;66.53;101616.69;5055398;28;20025;-80
2022/09/12 08:54:32;;;;;;;7.88;5.07;;;;;;;23.90;64.13;101613.38;5072944;28;20025;-79
2022/09/12 08:57:03;;;;;;;6.97;4.28;;;;;;;24.53;60.59;101623.78;5073074;28;20362;-79
2022/09/12 08:59:38;;;;;;;5.03;3.88;;;;;;;25.45;55.79;101617.34;5072847;28;20032;-79
2022/09/12 09:02:24;;;;;;;5.82;4.00;;;;;;;26.46;54.13;101620.91;5072831;28;20119;-81
2022/09/12 09:04:55;;;;;;;7.38;3.65;;;;;;;26.92;50.95;101621.47;5072835;28;20067;-80
2022/09/12 09:07:29;;;;;;;10.60;3.95;;;;;;;26.73;48.22;101613.28;5072936;28;20036;-80
2022/09/12 09:10:12;;;;;;;6.07;3.92;;;;;;;26.44;50.28;101622.19;5072849;28;20349;-80
2022/09/12 09:12:44;;;;;;;5.78;3.42;;;;;;;27.00;48.54;101604.75;5072421;28;20528;-80
2022/09/12 09:15:25;;;;;;;4.38;3.30;;;;;;;27.43;46.64;101598.28;5076359;28;20060;-80
2022/09/12 09:18:22;;;;;;;5.13;3.40;;;;;;;27.77;45.05;101605.97;5076126;28;20119;-81
2022/09/12 09:20:50;;;;;;;5.68;3.03;;;;;;;28.40;44.01;101606.34;5068316;28;20041;-81
2022/09/12 09:23:25;;;;;;;5.65;3.00;;;;;;;28.42;43.75;101605.00;5076558;28;20033;-80
2022/09/12 09:26:16;;;;;;;4.35;2.75;;;;;;;28.64;42.38;101594.28;5058612;28;20040;-80
2022/09/12 09:29:26;;;;;;;5.00;2.55;;;;;;;28.00;41.76;101588.75;5076257;28;20033;-82
2022/09/12 09:31:56;;;;;;;3.33;2.45;;;;;;;28.25;41.15;101585.78;5055190;28;20098;-81
2022/09/12 09:34:31;;;;;;;6.13;2.38;;;;;;;28.55;43.42;101579.28;5057819;28;20037;-80
2022/09/12 09:37:18;;;;;;;3.33;2.00;;;;;;;28.17;40.92;101571.63;5076010;28;20025;-82
2022/09/12 09:40:21;;;;;;;3.78;2.67;;;;;;;28.04;40.93;101567.25;5058478;28;20027;-83
2022/09/12 09:43:10;;;;;;;2.50;2.30;;;;;;;28.50;42.65;101563.59;5058348;28;20067;-82
2022/09/12 09:45:36;;;;;;;7.57;2.28;;;;;;;28.59;42.00;101558.59;5063258;28;20053;-80
2022/09/12 09:48:14;;;;;;;4.05;2.25;;;;;;;28.64;41.04;101566.09;5075910;28;20137;-82
2022/09/12 09:50:40;;;;;;;3.88;2.40;;;;;;;28.33;40.23;101565.41;5075603;28;20028;-79
2022/09/12 09:53:13;;;;;;;4.40;2.60;;;;;;;28.59;42.11;101557.75;5075872;28;20035;-81
2022/09/12 09:55:41;;;;;;;3.65;2.55;;;;;;;28.59;41.24;101555.84;5075515;28;20449;-81
2022/09/12 09:58:07;;;;;;;4.32;2.45;;;;;;;28.17;40.94;101561.53;5075562;28;20036;-80
2022/09/12 10:00:35;;;;;;;6.95;2.60;;;;;;;27.19;44.22;101553.66;5057723;28;20033;-80
2022/09/12 10:03:04;;;;;;;6.47;2.95;;;;;;;26.21;44.68;101558.22;5075857;28;20040;-80
2022/09/12 10:05:34;;;;;;;2.83;2.30;;;;;;;25.50;47.13;101547.53;5075612;28;20032;-80
2022/09/12 10:08:00;;;;;;;5.67;2.50;;;;;;;25.28;48.40;101548.94;5075810;28;20043;-80
2022/09/12 10:10:25;;;;;;;3.38;2.42;;;;;;;26.27;45.96;101543.69;5057524;28;20020;-80
2022/09/12 10:13:07;;;;;;;3.50;2.40;;;;;;;27.68;43.97;101548.06;5075232;28;20384;-80
2022/09/12 10:15:33;;;;;;;4.90;2.58;;;;;;;28.98;42.66;101542.38;5075775;28;20112;-81
2022/09/12 10:17:59;;;;;;;5.40;2.30;;;;;;;29.81;38.35;101535.56;5058181;28;20029;-80
2022/09/12 10:20:33;;;;;;;4.55;2.63;;;;;;;29.34;38.09;101531.25;5075954;28;20473;-80
2022/09/12 10:23:01;;;;;;;3.80;2.20;;;;;;;30.34;37.79;101519.56;5075679;28;20388;-80
2022/09/12 10:25:30;;;;;;;3.85;2.33;;;;;;;30.75;35.59;101528.28;5057234;28;20052;-82
2022/09/12 10:28:04;;;;;;;5.60;2.88;;;;;;;30.53;36.62;101529.16;5075403;28;20037;-80
2022/09/12 10:30:33;;;;;;;3.90;2.40;;;;;;;30.77;37.83;101524.22;5058165;28;20032;-80
2022/09/12 10:33:06;;;;;;;4.38;2.17;;;;;;;30.72;36.88;101529.66;5058479;28;20051;-80
2022/09/12 10:35:44;;;;;;;4.47;2.20;;;;;;;30.11;35.70;101529.69;5075984;28;20028;-83
2022/09/12 10:38:26;;;;;;;5.93;2.22;;;;;;;30.31;36.53;101533.81;5040752;28;20058;-81
2022/09/12 10:41:22;;;;;;;4.53;2.35;;;;;;;30.04;37.92;101532.63;5074787;28;20461;-81
2022/09/12 10:43:47;;;;;;;5.68;2.20;;;;;;;29.71;38.08;101530.75;5072710;28;20057;-80
2022/09/12 10:46:16;;;;;;;3.95;2.45;;;;;;;29.80;36.99;101523.75;5074614;28;20400;-82
2022/09/12 10:48:59;;;;;;;6.10;2.25;;;;;;;29.55;39.67;101530.50;5074692;28;20028;-80
2022/09/12 10:51:25;;;;;;;3.13;2.17;;;;;;;29.30;41.30;101533.66;5075142;28;20032;-80
2022/09/12 10:54:12;;;;;;;5.45;2.47;;;;;;;28.40;40.77;101527.81;5074298;28;20078;-79
2022/09/12 10:56:54;;;;;;;3.90;2.60;;;;;;;27.75;44.23;101539.75;5074611;28;20056;-79
2022/09/12 10:59:40;;;;;;;10.23;2.83;;;;;;;26.88;44.65;101539.16;5075061;28;20032;-80
2022/09/12 11:02:36;;;;;;;7.65;2.25;;;;;;;26.52;45.65;101531.88;5074783;28;20376;-81
2022/09/12 11:05:35;;;;;;;3.20;2.30;;;;;;;26.15;45.81;101523.69;5056658;28;20032;-80
2022/09/12 11:08:03;;;;;;;3.45;2.10;;;;;;;26.32;44.23;101523.91;5074766;28;20028;-84
2022/09/12 11:10:50;;;;;;;4.50;2.30;;;;;;;26.49;45.02;101518.69;5074291;28;20464;-79
2022/09/12 11:13:37;;;;;;;3.08;2.17;;;;;;;26.21;44.56;101517.31;5074540;28;20213;-82
2022/09/12 11:16:14;;;;;;;4.53;2.08;;;;;;;25.98;47.49;101513.34;5074421;28;20036;-81
2022/09/12 11:19:05;;;;;;;4.60;1.92;;;;;;;25.85;47.11;101521.66;5074613;28;20032;-81
2022/09/12 11:22:01;;;;;;;2.88;2.22;;;;;;;25.78;47.27;101521.72;5074030;28;20033;-81
2022/09/12 11:24:51;;;;;;;1.90;1.70;;;;;;;25.68;49.48;101518.69;5073917;28;20024;-81
2022/09/12 11:27:41;;;;;;;3.50;2.00;;;;;;;25.90;44.65;101519.09;5073555;28;20024;-81
2022/09/12 11:30:11;;;;;;;4.90;2.10;;;;;;;26.27;46.23;101512.84;5056153;28;20098;-81